createdAt,value
2019-04-06T00:02:32.948Z,50.60
2019-04-06T00:05:01.417Z,48.53
2019-04-06T00:07:29.900Z,49.00
2019-04-06T00:09:58.394Z,47.87
2019-04-06T00:12:26.866Z,49.60
2019-04-06T00:14:55.424Z,48.23
2019-04-06T00:17:23.889Z,48.70
2019-04-06T00:19:52.359Z,50.60
2019-04-06T00:22:20.843Z,47.30
2019-04-06T00:24:49.349Z,47.37
2019-04-06T00:27:17.848Z,48.93
2019-04-06T00:29:46.322Z,46.10
2019-04-06T00:32:28.641Z,48.67
2019-04-06T00:34:57.111Z,46.13
2019-04-06T00:37:25.583Z,48.47
2019-04-06T00:39:54.109Z,50.03
2019-04-06T00:42:22.624Z,46.20
2019-04-06T00:44:51.105Z,45.50
2019-04-06T00:47:19.588Z,47.07
2019-04-06T00:49:48.096Z,45.07
2019-04-06T00:52:16.585Z,42.37
2019-04-06T00:54:45.065Z,46.27
2019-04-06T00:57:13.551Z,48.57
2019-04-06T00:59:42.039Z,48.10
2019-04-06T01:02:10.838Z,49.83
2019-04-06T01:04:39.343Z,46.63
2019-04-06T01:07:07.847Z,46.63
2019-04-06T01:09:36.390Z,48.73
2019-04-06T01:12:04.962Z,44.23
2019-04-06T01:14:33.442Z,45.03
2019-04-06T01:17:01.928Z,47.13
2019-04-06T01:19:30.483Z,45.53
2019-04-06T01:21:58.992Z,51.27
2019-04-06T01:24:27.576Z,47.07
2019-04-06T01:26:56.038Z,47.83
2019-04-06T01:29:24.555Z,47.87
2019-04-06T01:31:53.016Z,49.40
2019-04-06T01:34:21.511Z,51.10
2019-04-06T01:36:50.392Z,51.97
2019-04-06T01:39:18.880Z,37.43
2019-04-06T01:41:47.363Z,46.47
2019-04-06T01:44:15.909Z,43.03
2019-04-06T01:46:44.411Z,45.73
2019-04-06T01:49:12.908Z,47.10
2019-04-06T01:51:41.423Z,47.70
2019-04-06T01:54:09.911Z,46.20
2019-04-06T01:56:38.355Z,44.70
2019-04-06T01:59:06.919Z,42.43
2019-04-06T02:01:52.080Z,41.17
2019-04-06T02:04:20.561Z,40.70
2019-04-06T02:06:49.063Z,42.43
2019-04-06T02:09:17.559Z,42.10
2019-04-06T02:11:46.020Z,40.57
2019-04-06T02:14:14.474Z,42.33
2019-04-06T02:16:42.957Z,40.50
2019-04-06T02:19:12.252Z,40.17
2019-04-06T02:21:40.779Z,41.87
2019-04-06T02:24:09.250Z,36.50
2019-04-06T02:26:37.784Z,37.97
2019-04-06T02:29:06.287Z,37.97
2019-04-06T02:31:36.509Z,38.17
2019-04-06T02:34:24.332Z,40.20
2019-04-06T02:36:56.987Z,41.23
2019-04-06T02:39:39.089Z,40.77
2019-04-06T02:42:09.341Z,39.63
2019-04-06T02:44:37.839Z,38.43
2019-04-06T02:47:06.430Z,37.57
2019-04-06T02:49:34.919Z,36.97
2019-04-06T02:52:03.381Z,34.97
2019-04-06T02:54:31.845Z,35.13
2019-04-06T02:57:00.370Z,38.00
2019-04-06T02:59:28.954Z,34.80
2019-04-06T03:01:57.479Z,35.37
2019-04-06T03:04:25.928Z,36.33
2019-04-06T03:06:54.468Z,35.87
2019-04-06T03:09:23.579Z,37.83
2019-04-06T03:11:52.030Z,39.33
2019-04-06T03:14:20.474Z,37.93
2019-04-06T03:16:48.982Z,38.53
2019-04-06T03:19:17.657Z,36.10
2019-04-06T03:21:46.204Z,35.17
2019-04-06T03:24:14.681Z,37.30
2019-04-06T03:26:43.140Z,36.90
2019-04-06T03:29:11.626Z,37.17
2019-04-06T03:31:40.422Z,36.07
2019-04-06T03:34:09.668Z,36.60
2019-04-06T03:36:38.354Z,36.00
2019-04-06T03:39:07.297Z,35.63
2019-04-06T03:41:35.840Z,34.37
2019-04-06T03:44:04.316Z,35.80
2019-04-06T03:46:32.775Z,35.87
2019-04-06T03:49:01.346Z,35.67
2019-04-06T03:51:29.810Z,33.83
2019-04-06T03:53:58.329Z,33.27
2019-04-06T03:56:26.773Z,36.00
2019-04-06T03:58:55.405Z,34.83
2019-04-06T04:01:23.855Z,36.47
2019-04-06T04:03:52.375Z,36.37
2019-04-06T04:06:20.833Z,35.57
2019-04-06T04:08:49.303Z,35.80
2019-04-06T04:11:17.753Z,41.80
2019-04-06T04:13:46.222Z,37.20
2019-04-06T04:16:14.648Z,37.87
2019-04-06T04:18:43.061Z,38.27
2019-04-06T04:21:11.659Z,38.03
2019-04-06T04:23:40.152Z,38.37
2019-04-06T04:26:08.886Z,37.60
2019-04-06T04:28:37.697Z,37.07
2019-04-06T04:31:06.214Z,36.23
2019-04-06T04:33:34.644Z,36.87
2019-04-06T04:36:03.110Z,37.63
2019-04-06T04:38:31.791Z,38.67
2019-04-06T04:41:00.508Z,35.17
2019-04-06T04:43:28.984Z,38.07
2019-04-06T04:45:58.233Z,35.97
2019-04-06T04:48:26.720Z,36.50
2019-04-06T04:50:55.147Z,34.20
2019-04-06T04:53:23.590Z,33.40
2019-04-06T04:55:52.228Z,33.67
2019-04-06T04:58:20.663Z,34.77
2019-04-06T05:00:49.433Z,33.73
2019-04-06T05:03:17.926Z,31.30
2019-04-06T05:05:46.347Z,33.73
2019-04-06T05:08:14.802Z,31.13
2019-04-06T05:10:44.795Z,32.67
2019-04-06T05:13:13.501Z,33.93
2019-04-06T05:16:11.822Z,33.70
2019-04-06T05:18:41.974Z,33.17
2019-04-06T05:21:11.925Z,35.27
2019-04-06T05:23:40.418Z,34.10
2019-04-06T05:26:09.239Z,34.00
2019-04-06T05:28:37.718Z,35.20
2019-04-06T05:31:06.244Z,32.47
2019-04-06T05:33:34.821Z,36.00
2019-04-06T05:36:03.546Z,34.07
2019-04-06T05:38:34.418Z,32.23
2019-04-06T05:41:03.250Z,30.90
2019-04-06T05:43:31.930Z,33.27
2019-04-06T05:46:00.483Z,34.37
2019-04-06T05:48:28.949Z,34.83
2019-04-06T05:50:57.651Z,33.40
2019-04-06T05:53:26.614Z,33.57
2019-04-06T05:55:55.100Z,31.70
2019-04-06T05:58:23.544Z,32.37
2019-04-06T06:00:52.169Z,33.80
2019-04-06T06:03:20.871Z,33.53
2019-04-06T06:05:49.578Z,33.30
2019-04-06T06:08:18.095Z,33.03
2019-04-06T06:10:47.433Z,33.80
2019-04-06T06:13:16.378Z,34.10
2019-04-06T06:15:46.401Z,33.47
2019-04-06T06:18:25.423Z,33.90
2019-04-06T06:20:45.212Z,33.60
2019-04-06T06:23:15.850Z,34.03
2019-04-06T06:25:45.845Z,34.27
2019-04-06T06:28:15.556Z,33.97
2019-04-06T06:30:44.402Z,34.47
2019-04-06T06:33:12.943Z,33.53
2019-04-06T06:35:41.471Z,33.93
2019-04-06T06:38:09.933Z,34.17
2019-04-06T06:40:38.389Z,34.03
2019-04-06T06:43:06.881Z,32.83
2019-04-06T06:45:35.475Z,32.30
2019-04-06T06:48:04.133Z,33.17
2019-04-06T06:50:34.523Z,34.77
2019-04-06T06:53:02.786Z,31.57
2019-04-06T06:55:31.424Z,30.93
2019-04-06T06:57:59.872Z,27.83
2019-04-06T07:00:28.312Z,29.33
2019-04-06T07:02:56.793Z,27.83
2019-04-06T07:05:25.314Z,27.73
2019-04-06T07:07:53.752Z,27.57
2019-04-06T07:10:22.257Z,27.73
2019-04-06T07:12:50.757Z,26.50
2019-04-06T07:15:19.285Z,26.80
2019-04-06T07:17:47.706Z,27.17
2019-04-06T07:20:16.889Z,28.20
2019-04-06T07:22:45.706Z,29.47
2019-04-06T07:25:15.010Z,26.93
2019-04-06T07:27:43.445Z,28.07
2019-04-06T07:30:12.839Z,29.47
2019-04-06T07:32:41.430Z,28.33
2019-04-06T07:35:10.064Z,27.50
2019-04-06T07:37:38.679Z,27.67
2019-04-06T07:40:10.387Z,26.70
2019-04-06T07:42:38.956Z,25.43
2019-04-06T07:45:09.019Z,27.43
2019-04-06T07:47:37.547Z,25.87
2019-04-06T07:50:07.210Z,26.83
2019-04-06T07:52:36.314Z,26.53
2019-04-06T07:55:08.536Z,25.37
2019-04-06T07:57:37.015Z,26.77
2019-04-06T08:00:09.358Z,27.40
2019-04-06T08:02:37.811Z,28.10
2019-04-06T08:05:07.291Z,28.23
2019-04-06T08:07:35.846Z,29.50
2019-04-06T08:10:05.374Z,30.33
2019-04-06T08:12:33.806Z,28.67
2019-04-06T08:15:02.340Z,27.70
2019-04-06T08:17:30.823Z,30.97
2019-04-06T08:19:59.406Z,32.77
2019-04-06T08:22:27.878Z,31.77
2019-04-06T08:24:56.327Z,28.87
2019-04-06T08:27:24.770Z,30.43
2019-04-06T08:29:53.220Z,32.07
2019-04-06T08:32:21.655Z,32.13
2019-04-06T08:34:50.262Z,31.83
2019-04-06T08:37:18.861Z,32.90
2019-04-06T08:39:47.734Z,31.83
2019-04-06T08:42:16.359Z,32.37
2019-04-06T08:44:44.728Z,36.17
2019-04-06T08:47:13.176Z,34.33
2019-04-06T08:49:41.628Z,34.77
2019-04-06T08:52:11.611Z,35.87
2019-04-06T08:54:40.555Z,36.60
2019-04-06T08:57:09.410Z,37.27
2019-04-06T08:59:37.998Z,38.57
2019-04-06T09:02:06.807Z,37.37
2019-04-06T09:04:35.282Z,40.77
2019-04-06T09:07:03.731Z,38.83
2019-04-06T09:09:32.212Z,39.43
2019-04-06T09:12:00.749Z,40.77
2019-04-06T09:14:29.488Z,39.47
2019-04-06T09:16:58.167Z,38.57
2019-04-06T09:19:26.613Z,40.27
2019-04-06T09:21:55.075Z,40.93
2019-04-06T09:24:23.563Z,39.40
2019-04-06T09:26:52.026Z,40.47
2019-04-06T09:29:24.126Z,41.90
2019-04-06T09:31:50.634Z,40.27
2019-04-06T09:34:19.118Z,41.27
2019-04-06T09:36:47.567Z,41.53
2019-04-06T09:39:16.184Z,39.13
2019-04-06T09:41:44.919Z,40.93
2019-04-06T09:44:15.063Z,41.23
2019-04-06T09:47:00.406Z,40.43
2019-04-06T09:49:30.498Z,40.90
2019-04-06T09:52:16.634Z,39.10
2019-04-06T09:55:05.133Z,38.17
2019-04-06T09:57:38.153Z,40.50
2019-04-06T10:00:15.867Z,41.67
2019-04-06T10:02:45.977Z,40.13
2019-04-06T10:05:18.752Z,40.07
2019-04-06T10:07:48.913Z,41.50
2019-04-06T10:10:34.099Z,39.00
2019-04-06T10:13:06.725Z,40.40
2019-04-06T10:15:43.042Z,40.77
2019-04-06T10:18:29.511Z,38.37
2019-04-06T10:21:02.353Z,42.53
2019-04-06T10:23:38.136Z,40.73
2019-04-06T10:26:17.053Z,41.03
2019-04-06T10:28:52.918Z,39.50
2019-04-06T10:31:37.680Z,39.43
2019-04-06T10:34:13.895Z,37.90
2019-04-06T10:36:47.002Z,38.30
2019-04-06T10:39:19.642Z,38.87
2019-04-06T10:42:04.985Z,39.50
2019-04-06T10:44:50.307Z,39.93
2019-04-06T10:47:35.237Z,37.53
2019-04-06T10:50:06.213Z,38.07
2019-04-06T10:52:48.154Z,38.13
2019-04-06T10:55:29.950Z,37.80
2019-04-06T10:58:00.248Z,38.60
2019-04-06T11:00:32.893Z,37.60
2019-04-06T11:03:02.979Z,38.50
2019-04-06T11:05:36.376Z,36.20
2019-04-06T11:08:24.903Z,38.50
2019-04-06T11:11:02.468Z,36.93
2019-04-06T11:13:32.862Z,38.97
2019-04-06T11:16:19.166Z,38.63
2019-04-06T11:18:55.095Z,40.17
2019-04-06T11:21:25.429Z,39.03
2019-04-06T11:24:04.731Z,39.30
2019-04-06T11:26:38.070Z,39.73
2019-04-06T11:29:17.222Z,40.50
2019-04-06T11:31:56.571Z,40.53
2019-04-06T11:34:26.864Z,40.13
2019-04-06T11:37:15.009Z,41.03
2019-04-06T11:39:47.771Z,39.23
2019-04-06T11:42:29.564Z,40.33
2019-04-06T11:44:59.856Z,40.97
2019-04-06T11:47:29.979Z,40.00
2019-04-06T11:50:00.138Z,39.20
2019-04-06T11:52:30.240Z,39.17
2019-04-06T11:55:02.861Z,39.40
2019-04-06T11:57:49.341Z,39.90
2019-04-06T12:00:35.751Z,39.60
2019-04-06T12:03:06.207Z,41.10
2019-04-06T12:05:52.417Z,39.67
2019-04-06T12:08:22.573Z,37.83
2019-04-06T12:10:52.714Z,37.40
2019-04-06T12:13:25.789Z,37.80
2019-04-06T12:15:55.875Z,37.10
2019-04-06T12:18:25.955Z,38.80
2019-04-06T12:21:10.791Z,36.00
2019-04-06T12:23:57.040Z,34.43
2019-04-06T12:26:36.186Z,32.87
2019-04-06T12:29:21.213Z,32.47
2019-04-06T12:32:05.959Z,29.97
2019-04-06T12:34:36.055Z,31.00
2019-04-06T12:37:20.913Z,29.90
2019-04-06T12:40:03.528Z,29.77
2019-04-06T12:42:36.372Z,28.97
2019-04-06T12:45:23.723Z,29.03
2019-04-06T12:48:10.247Z,29.00
2019-04-06T12:50:42.736Z,27.90
2019-04-06T12:53:12.826Z,29.37
2019-04-06T12:55:45.709Z,26.50
2019-04-06T12:58:15.798Z,30.33
2019-04-06T13:00:52.929Z,28.73
2019-04-06T13:03:23.265Z,27.10
2019-04-06T13:06:02.262Z,26.47
2019-04-06T13:08:32.788Z,26.90
2019-04-06T13:11:19.827Z,26.40
2019-04-06T13:13:49.888Z,26.67
2019-04-06T13:16:22.758Z,24.50
2019-04-06T13:19:09.253Z,25.20
2019-04-06T13:21:55.619Z,24.63
2019-04-06T13:24:41.960Z,22.37
2019-04-06T13:27:24.223Z,23.40
2019-04-06T13:30:00.588Z,23.73
2019-04-06T13:32:42.713Z,23.57
2019-04-06T13:35:18.493Z,23.23
2019-04-06T13:38:03.805Z,22.63
2019-04-06T13:40:50.298Z,22.07
2019-04-06T13:43:20.363Z,20.40
2019-04-06T13:45:50.474Z,19.93
2019-04-06T13:48:23.337Z,18.67
2019-04-06T13:51:11.544Z,20.27
2019-04-06T13:54:00.089Z,19.50
2019-04-06T13:56:33.160Z,19.57
2019-04-06T13:59:08.688Z,20.50
2019-04-06T14:01:41.675Z,20.37
2019-04-06T14:04:14.513Z,23.63
2019-04-06T14:06:47.304Z,22.00
2019-04-06T14:09:17.647Z,22.77
2019-04-06T14:11:51.013Z,22.80
2019-04-06T14:14:21.076Z,21.37
2019-04-06T14:16:53.579Z,20.37
2019-04-06T14:19:26.640Z,19.87
2019-04-06T14:22:11.983Z,20.43
2019-04-06T14:25:00.481Z,17.40
2019-04-06T14:27:39.072Z,17.23
2019-04-06T14:30:10.496Z,14.97
2019-04-06T14:32:40.683Z,14.20
2019-04-06T14:35:21.996Z,14.57
2019-04-06T14:37:52.454Z,14.00
2019-04-06T14:40:40.317Z,12.53
2019-04-06T14:43:21.276Z,12.53
2019-04-06T14:46:04.507Z,12.00
2019-04-06T14:48:45.360Z,10.97
2019-04-06T14:51:16.392Z,13.00
2019-04-06T14:53:55.049Z,12.07
2019-04-06T14:56:25.440Z,11.63
2019-04-06T14:58:58.389Z,13.60
2019-04-06T15:01:45.270Z,18.23
2019-04-06T15:04:22.681Z,16.77
2019-04-06T15:06:53.873Z,16.30
2019-04-06T15:09:33.179Z,17.00
2019-04-06T15:12:12.173Z,18.40
2019-04-06T15:14:47.478Z,17.57
2019-04-06T15:17:20.926Z,18.43
2019-04-06T15:19:51.023Z,17.97
2019-04-06T15:22:40.082Z,18.13
2019-04-06T15:25:22.599Z,18.30
2019-04-06T15:27:58.404Z,19.37
2019-04-06T15:30:34.231Z,18.83
2019-04-06T15:33:20.949Z,17.73
2019-04-06T15:36:02.841Z,13.17
2019-04-06T15:38:40.925Z,12.40
2019-04-06T15:41:11.231Z,11.80
2019-04-06T15:43:48.962Z,11.80
2019-04-06T15:46:25.469Z,11.83
2019-04-06T15:48:55.702Z,11.90
2019-04-06T15:51:41.901Z,12.27
2019-04-06T15:54:20.390Z,12.77
2019-04-06T15:57:05.696Z,13.90
2019-04-06T15:59:37.396Z,12.00
2019-04-06T16:02:13.654Z,11.60
2019-04-06T16:04:49.800Z,12.33
2019-04-06T16:07:37.664Z,12.27
2019-04-06T16:10:21.244Z,12.93
2019-04-06T16:12:51.689Z,13.53
2019-04-06T16:15:39.817Z,13.40
2019-04-06T16:18:25.373Z,13.77
2019-04-06T16:20:59.175Z,15.90
2019-04-06T16:23:29.870Z,16.47
2019-04-06T16:26:03.311Z,17.73
2019-04-06T16:28:36.319Z,16.60
2019-04-06T16:31:12.925Z,16.63
2019-04-06T16:33:46.362Z,17.03
2019-04-06T16:36:19.840Z,16.47
2019-04-06T16:38:52.693Z,19.10
2019-04-06T16:41:41.154Z,18.13
2019-04-06T16:44:11.987Z,18.30
2019-04-06T16:46:42.553Z,19.30
2019-04-06T16:49:22.918Z,18.37
2019-04-06T16:52:10.073Z,19.20
2019-04-06T16:54:43.720Z,18.73
2019-04-06T16:57:30.885Z,19.27
2019-04-06T17:00:01.335Z,19.07
2019-04-06T17:02:50.842Z,19.17
2019-04-06T17:05:37.615Z,16.40
2019-04-06T17:08:12.075Z,16.93
2019-04-06T17:10:43.062Z,16.40
2019-04-06T17:13:22.440Z,15.97
2019-04-06T17:15:56.245Z,15.93
2019-04-06T17:18:42.400Z,15.80
2019-04-06T17:21:19.291Z,16.83
2019-04-06T17:24:05.770Z,17.10
2019-04-06T17:26:35.900Z,15.83
2019-04-06T17:29:16.004Z,17.47
2019-04-06T17:31:49.768Z,16.63
2019-04-06T17:34:36.205Z,16.13
2019-04-06T17:37:06.560Z,16.33
2019-04-06T17:39:42.766Z,15.80
2019-04-06T17:42:26.097Z,15.87
2019-04-06T17:45:10.383Z,16.10
2019-04-06T17:47:56.911Z,16.93
2019-04-06T17:50:27.193Z,18.07
2019-04-06T17:53:01.734Z,17.00
2019-04-06T17:55:49.440Z,18.33
2019-04-06T17:58:19.698Z,17.73
2019-04-06T18:00:51.550Z,18.17
2019-04-06T18:03:27.693Z,17.67
2019-04-06T18:06:14.123Z,18.23
2019-04-06T18:08:53.282Z,18.57
2019-04-06T18:11:24.194Z,16.13
2019-04-06T18:13:54.171Z,15.80
2019-04-06T18:16:24.339Z,15.50
2019-04-06T18:18:53.115Z,15.50
2019-04-06T18:21:22.257Z,14.30
2019-04-06T18:23:51.250Z,15.20
2019-04-06T18:26:20.443Z,16.90
2019-04-06T18:28:49.332Z,16.20
2019-04-06T18:31:22.648Z,15.93
2019-04-06T18:33:51.188Z,15.60
2019-04-06T18:36:21.968Z,15.47
2019-04-06T18:38:54.977Z,14.23
2019-04-06T18:41:23.950Z,14.93
2019-04-06T18:43:53.495Z,15.83
2019-04-06T18:46:22.534Z,15.73
2019-04-06T18:48:55.164Z,14.77
2019-04-06T18:51:24.645Z,14.77
2019-04-06T18:53:53.706Z,14.27
2019-04-06T18:56:25.455Z,13.53
2019-04-06T18:58:54.120Z,13.40
2019-04-06T19:01:22.956Z,13.90
2019-04-06T19:03:51.789Z,13.33
2019-04-06T19:06:20.384Z,13.87
2019-04-06T19:08:48.815Z,13.30
2019-04-06T19:11:17.506Z,13.07
2019-04-06T19:13:46.744Z,13.93
2019-04-06T19:16:17.255Z,14.00
2019-04-06T19:18:46.671Z,14.30
2019-04-06T19:21:15.528Z,13.20
2019-04-06T19:23:44.053Z,14.00
2019-04-06T19:26:12.859Z,14.23
2019-04-06T19:28:42.284Z,13.50
2019-04-06T19:31:12.563Z,14.57
2019-04-06T19:33:42.417Z,13.43
2019-04-06T19:36:11.680Z,15.23
2019-04-06T19:38:40.395Z,15.27
2019-04-06T19:41:09.271Z,14.87
2019-04-06T19:43:41.024Z,14.63
2019-04-06T19:46:09.528Z,15.37
2019-04-06T19:48:40.613Z,15.07
2019-04-06T19:51:08.955Z,14.93
2019-04-06T19:53:39.119Z,15.03
2019-04-06T19:56:07.825Z,15.10
2019-04-06T19:58:37.092Z,14.53
2019-04-06T20:01:05.811Z,15.53
2019-04-06T20:03:37.358Z,14.93
2019-04-06T20:06:04.769Z,15.27
2019-04-06T20:08:33.378Z,15.77
2019-04-06T20:11:01.988Z,15.63
2019-04-06T20:13:30.719Z,15.00
2019-04-06T20:15:59.885Z,15.63
2019-04-06T20:18:28.977Z,15.77
2019-04-06T20:20:57.798Z,15.53
2019-04-06T20:23:26.657Z,17.10
2019-04-06T20:25:56.760Z,15.40
2019-04-06T20:28:25.480Z,16.70
2019-04-06T20:30:54.477Z,15.67
2019-04-06T20:33:23.325Z,16.10
2019-04-06T20:35:52.126Z,16.83
2019-04-06T20:38:20.905Z,16.80
2019-04-06T20:40:50.864Z,16.33
2019-04-06T20:43:19.762Z,14.97
2019-04-06T20:45:48.876Z,15.90
2019-04-06T20:48:17.471Z,16.80
2019-04-06T20:50:46.120Z,17.37
2019-04-06T20:53:15.292Z,16.10
2019-04-06T20:55:43.761Z,17.23
2019-04-06T20:58:12.246Z,16.73
2019-04-06T21:00:40.670Z,16.07
2019-04-06T21:03:09.633Z,16.13
2019-04-06T21:05:38.337Z,17.07
2019-04-06T21:08:07.374Z,16.47
2019-04-06T21:10:36.259Z,16.80
2019-04-06T21:13:05.431Z,15.37
2019-04-06T21:15:34.135Z,16.30
2019-04-06T21:18:02.741Z,16.83
2019-04-06T21:20:31.471Z,17.27
2019-04-06T21:23:00.149Z,16.70
2019-04-06T21:25:28.620Z,18.10
2019-04-06T21:27:57.806Z,18.50
2019-04-06T21:30:26.645Z,17.63
2019-04-06T21:32:55.451Z,17.90
2019-04-06T21:35:23.973Z,16.60
2019-04-06T21:37:52.852Z,16.53
2019-04-06T21:40:21.564Z,16.50
2019-04-06T21:42:50.141Z,17.50
2019-04-06T21:45:19.611Z,17.03
2019-04-06T21:47:49.494Z,15.93
2019-04-06T21:50:18.149Z,16.87
2019-04-06T21:52:49.186Z,15.93
2019-04-06T21:55:16.955Z,15.77
2019-04-06T21:57:45.658Z,16.90
2019-04-06T22:00:16.661Z,16.83
2019-04-06T22:02:45.898Z,15.47
2019-04-06T22:05:17.123Z,15.43
2019-04-06T22:07:49.845Z,15.27
2019-04-06T22:10:17.256Z,15.87
2019-04-06T22:12:46.061Z,15.57
2019-04-06T22:15:16.198Z,15.50
2019-04-06T22:17:45.704Z,16.60
2019-04-06T22:20:14.962Z,16.43
2019-04-06T22:22:43.482Z,16.70
2019-04-06T22:25:12.198Z,16.40
2019-04-06T22:27:41.601Z,15.17
2019-04-06T22:30:11.270Z,15.90
2019-04-06T22:32:40.315Z,15.70
2019-04-06T22:35:09.965Z,16.63
2019-04-06T22:37:39.575Z,16.40
2019-04-06T22:40:08.609Z,15.87
2019-04-06T22:42:37.708Z,15.30
2019-04-06T22:45:13.777Z,15.73
2019-04-06T22:47:45.181Z,15.30
2019-04-06T22:50:15.186Z,16.03
2019-04-06T22:52:45.207Z,16.47
2019-04-06T22:55:13.905Z,15.07
2019-04-06T22:57:42.811Z,15.77
2019-04-06T23:00:16.742Z,16.30
2019-04-06T23:03:02.844Z,16.83
2019-04-06T23:05:36.998Z,16.17
2019-04-06T23:08:06.371Z,15.20
2019-04-06T23:10:35.074Z,15.57
2019-04-06T23:13:04.438Z,16.00
2019-04-06T23:15:32.839Z,15.87
2019-04-06T23:18:02.142Z,16.20
2019-04-06T23:20:31.179Z,16.27
2019-04-06T23:22:59.673Z,16.53
2019-04-06T23:25:28.893Z,16.57
2019-04-06T23:28:00.116Z,16.27
2019-04-06T23:30:28.532Z,15.17
2019-04-06T23:32:57.387Z,16.93
2019-04-06T23:35:27.603Z,17.27
2019-04-06T23:37:56.514Z,16.63
2019-04-06T23:40:25.170Z,16.47
2019-04-06T23:42:53.767Z,15.33
2019-04-06T23:45:25.477Z,16.30
2019-04-06T23:47:53.945Z,16.23
2019-04-06T23:50:25.878Z,15.43
2019-04-06T23:52:54.615Z,15.73
2019-04-06T23:55:23.434Z,17.20
2019-04-06T23:57:52.512Z,16.90
